Time;durP1;ratioP1;P1;durP2;ratioP2;P2;SDS_P1;SDS_P2;PMS_P1;PMS_P2;Temp;Humidity;BMP_temperature;BMP_pressure;BME280_temperature;BME280_humidity;BME280_pressure;Samples;Min_cycle;Max_cycle;Signal;HPM_P1;HPM_P2
2023/11/10 00:01:44;;;;;;;5.40;1.90;;;;;;;4.30;100.00;99219.06;5078617;28;20063;-72
2023/11/10 00:04:28;;;;;;;11.50;1.85;;;;;;;4.24;100.00;99215.53;5086428;28;20071;-72
2023/11/10 00:07:12;;;;;;;5.45;1.80;;;;;;;4.24;100.00;99204.53;5093566;28;20039;-72
2023/11/10 00:09:56;;;;;;;9.15;1.90;;;;;;;4.21;100.00;99207.88;5078311;28;20062;-72
2023/11/10 00:12:40;;;;;;;12.00;1.67;;;;;;;4.20;100.00;99206.19;5084137;28;20105;-72
2023/11/10 00:15:24;;;;;;;9.13;1.95;;;;;;;4.20;100.00;99199.88;5098314;28;20116;-72
2023/11/10 00:18:08;;;;;;;6.53;1.52;;;;;;;4.21;100.00;99207.06;5084394;28;20036;-72
2023/11/10 00:20:52;;;;;;;8.23;1.85;;;;;;;4.18;100.00;99197.44;5083805;28;20559;-72
2023/11/10 00:23:37;;;;;;;6.35;1.63;;;;;;;4.15;100.00;99195.25;5092506;28;20507;-73
2023/11/10 00:26:24;;;;;;;6.40;1.65;;;;;;;4.11;100.00;99199.66;5077731;28;20412;-72
2023/11/10 00:29:08;;;;;;;10.68;2.08;;;;;;;4.12;100.00;99205.97;5078197;28;20043;-72
2023/11/10 00:31:52;;;;;;;9.32;1.98;;;;;;;4.06;100.00;99205.19;5084020;28;20074;-72
2023/11/10 00:34:37;;;;;;;7.13;1.77;;;;;;;4.07;100.00;99201.34;5080650;28;20186;-72
2023/11/10 00:37:22;;;;;;;7.97;1.52;;;;;;;4.03;100.00;99198.34;5077720;28;20035;-72
2023/11/10 00:40:07;;;;;;;12.02;2.20;;;;;;;4.07;100.00;99195.00;5086248;28;20035;-72
2023/11/10 00:42:51;;;;;;;10.00;2.10;;;;;;;4.03;100.00;99197.50;5082388;28;20102;-73
2023/11/10 00:45:35;;;;;;;6.78;1.90;;;;;;;4.03;100.00;99200.25;5085802;28;20089;-72
2023/11/10 00:48:19;;;;;;;8.43;1.63;;;;;;;3.97;100.00;99199.47;5085342;28;20105;-73
2023/11/10 00:51:04;;;;;;;8.15;2.00;;;;;;;3.96;100.00;99195.09;5083850;28;20094;-72
2023/11/10 00:53:48;;;;;;;12.27;1.83;;;;;;;3.94;100.00;99190.97;5084544;28;20046;-72
2023/11/10 00:56:33;;;;;;;8.98;1.67;;;;;;;3.94;100.00;99190.97;5086181;28;20038;-72
2023/11/10 00:59:17;;;;;;;6.18;1.67;;;;;;;3.91;100.00;99188.81;5079231;28;20040;-73
2023/11/10 01:02:01;;;;;;;8.32;1.80;;;;;;;3.89;100.00;99180.81;5077534;28;20040;-73
2023/11/10 01:04:45;;;;;;;9.80;1.50;;;;;;;3.85;100.00;99185.25;5080028;28;20547;-72
2023/11/10 01:07:29;;;;;;;9.68;1.90;;;;;;;3.85;100.00;99179.75;5091195;28;20136;-72
2023/11/10 01:10:13;;;;;;;9.02;2.08;;;;;;;3.83;100.00;99186.63;5077127;28;20075;-72
2023/11/10 01:12:58;;;;;;;10.32;2.00;;;;;;;3.83;100.00;99179.22;5077262;28;20567;-72
2023/11/10 01:15:42;;;;;;;10.50;1.73;;;;;;;3.78;100.00;99182.78;5084624;28;20605;-72
2023/11/10 01:18:27;;;;;;;6.95;1.50;;;;;;;3.83;100.00;99178.41;5080786;28;20090;-72
2023/11/10 01:21:11;;;;;;;8.40;1.77;;;;;;;3.79;100.00;99176.22;5089457;28;20066;-73
2023/11/10 01:23:55;;;;;;;6.78;1.67;;;;;;;3.73;100.00;99185.59;5085259;28;20092;-72
2023/11/10 01:26:39;;;;;;;13.20;1.98;;;;;;;3.75;100.00;99175.13;5079599;28;20106;-72
2023/11/10 01:29:24;;;;;;;11.13;1.90;;;;;;;3.77;100.00;99181.16;5077230;28;20123;-72
2023/11/10 01:32:08;;;;;;;10.45;1.70;;;;;;;3.71;100.00;99193.28;5086588;28;20039;-72
2023/11/10 01:34:52;;;;;;;9.20;2.00;;;;;;;3.76;100.00;99197.91;5091894;28;20044;-72
2023/11/10 01:37:36;;;;;;;9.77;1.75;;;;;;;3.68;100.00;99193.84;5076727;28;20040;-72
2023/11/10 01:40:20;;;;;;;17.65;2.08;;;;;;;3.69;100.00;99200.97;5077135;28;20047;-72
2023/11/10 01:43:11;;;;;;;8.55;1.60;;;;;;;3.69;100.00;99200.97;5082715;28;20039;-72
2023/11/10 01:45:55;;;;;;;7.57;1.80;;;;;;;3.65;100.00;99210.88;5085609;28;20043;-72
2023/11/10 01:48:40;;;;;;;7.75;2.05;;;;;;;3.65;100.00;99199.06;5080022;28;20079;-72
2023/11/10 01:51:24;;;;;;;9.65;2.33;;;;;;;3.64;100.00;99205.66;5087033;28;20035;-72
2023/11/10 01:54:08;;;;;;;6.70;1.80;;;;;;;3.66;100.00;99206.22;5081610;28;20146;-72
2023/11/10 01:56:52;;;;;;;11.55;1.73;;;;;;;3.58;100.00;99216.66;5089643;28;20153;-72
2023/11/10 01:59:36;;;;;;;9.93;1.48;;;;;;;3.63;100.00;99224.06;5088191;28;20081;-72
2023/11/10 02:02:21;;;;;;;8.55;1.80;;;;;;;3.63;100.00;99213.09;5082775;28;20040;-72
2023/11/10 02:05:07;;;;;;;8.85;1.77;;;;;;;3.57;100.00;99208.72;5085801;28;20043;-72
2023/11/10 02:07:53;;;;;;;7.88;1.98;;;;;;;3.58;100.00;99204.84;5054847;28;20133;-72
2023/11/10 02:10:38;;;;;;;9.68;1.77;;;;;;;3.54;100.00;99199.13;5093961;28;20094;-72
2023/11/10 02:13:22;;;;;;;8.15;2.20;;;;;;;3.55;100.00;99205.41;5083294;28;20055;-72
2023/11/10 02:16:06;;;;;;;6.93;1.50;;;;;;;3.54;100.00;99204.59;5100913;28;20069;-72
2023/11/10 02:18:50;;;;;;;8.82;1.70;;;;;;;3.58;100.00;99202.13;5087076;28;20039;-72
2023/11/10 02:21:35;;;;;;;7.65;1.60;;;;;;;3.54;100.00;99193.63;5099470;28;20038;-72
2023/11/10 02:24:19;;;;;;;6.18;1.75;;;;;;;3.57;100.00;99195.81;5088151;28;20043;-72
2023/11/10 02:27:04;;;;;;;12.15;2.22;;;;;;;3.60;100.00;99177.13;5064952;28;20111;-72
2023/11/10 02:29:48;;;;;;;8.65;1.80;;;;;;;3.57;100.00;99187.56;5080099;28;20044;-72
2023/11/10 02:32:32;;;;;;;9.13;1.98;;;;;;;3.62;100.00;99183.97;5079031;28;20393;-72
2023/11/10 02:35:16;;;;;;;15.43;1.98;;;;;;;3.64;100.00;99180.94;5099258;28;20384;-72
2023/11/10 02:38:00;;;;;;;10.57;2.25;;;;;;;3.69;100.00;99170.75;5081473;28;20124;-72
2023/11/10 02:40:44;;;;;;;9.98;1.67;;;;;;;3.71;100.00;99171.31;5079864;28;20116;-72
2023/11/10 02:43:28;;;;;;;12.43;2.13;;;;;;;3.73;100.00;99180.09;5087879;28;20039;-72
2023/11/10 02:46:12;;;;;;;10.75;2.13;;;;;;;3.74;100.00;99170.75;5082844;28;20066;-72
2023/11/10 02:48:58;;;;;;;13.65;1.55;;;;;;;3.79;100.00;99161.69;5078819;28;20040;-72
2023/11/10 02:51:43;;;;;;;9.18;2.10;;;;;;;3.82;100.00;99166.59;5088790;28;20079;-72
2023/11/10 02:54:27;;;;;;;11.57;2.25;;;;;;;3.88;100.00;99175.63;5084840;28;20573;-72
2023/11/10 02:57:11;;;;;;;11.95;1.75;;;;;;;3.92;100.00;99163.78;5096608;28;20085;-72
2023/11/10 02:59:55;;;;;;;10.15;2.22;;;;;;;3.93;100.00;99173.69;5100014;28;20086;-72
2023/11/10 03:02:40;;;;;;;15.63;2.30;;;;;;;4.00;100.00;99162.38;5080960;28;20043;-72
2023/11/10 03:05:24;;;;;;;10.18;2.22;;;;;;;4.03;100.00;99156.31;5099704;28;20515;-72
2023/11/10 03:08:08;;;;;;;6.30;2.10;;;;;;;4.03;100.00;99153.56;5088170;28;20043;-72
2023/11/10 03:10:52;;;;;;;8.60;2.28;;;;;;;4.06;100.00;99155.72;5086441;28;20039;-72
2023/11/10 03:13:36;;;;;;;17.05;2.80;;;;;;;4.09;100.00;99160.66;5092210;28;20052;-72
2023/11/10 03:16:21;;;;;;;9.82;2.35;;;;;;;4.13;100.00;99150.75;5079364;28;20070;-72
2023/11/10 03:19:05;;;;;;;9.10;2.50;;;;;;;4.17;100.00;99160.06;5087054;28;20039;-72
2023/11/10 03:21:49;;;;;;;11.10;2.40;;;;;;;4.15;100.00;99161.44;5095089;28;20384;-72
2023/11/10 03:24:33;;;;;;;9.52;2.10;;;;;;;4.17;100.00;99165.56;5085564;28;20388;-72
2023/11/10 03:27:17;;;;;;;11.10;2.33;;;;;;;4.20;100.00;99159.50;5078967;28;20086;-72
2023/11/10 03:30:01;;;;;;;6.90;2.40;;;;;;;4.18;100.00;99156.22;5094292;28;20043;-72
2023/11/10 03:32:45;;;;;;;15.00;2.67;;;;;;;4.22;100.00;99149.03;5083277;28;20677;-72
2023/11/10 03:35:30;;;;;;;10.52;2.60;;;;;;;4.26;100.00;99143.78;5078816;28;20090;-72
2023/11/10 03:38:14;;;;;;;12.18;2.42;;;;;;;4.25;100.00;99142.97;5085334;28;20097;-72
2023/11/10 03:41:02;;;;;;;12.68;2.22;;;;;;;4.23;100.00;99136.97;5097863;28;20039;-73
2023/11/10 03:43:47;;;;;;;15.52;3.35;;;;;;;4.23;100.00;99138.84;5089316;28;20035;-72
2023/11/10 03:46:31;;;;;;;18.33;3.38;;;;;;;4.21;100.00;99130.91;5079410;28;20044;-72
2023/11/10 03:49:15;;;;;;;13.60;2.90;;;;;;;4.22;100.00;99127.06;5077362;28;20101;-72
2023/11/10 03:51:59;;;;;;;17.17;3.05;;;;;;;4.27;100.00;99136.38;5088318;28;20058;-72
2023/11/10 03:54:43;;;;;;;15.15;2.65;;;;;;;4.27;100.00;99133.63;5063009;28;20036;-72
2023/11/10 03:57:27;;;;;;;17.63;2.40;;;;;;;4.24;100.00;99130.34;5078317;28;20117;-72
2023/11/10 04:00:12;;;;;;;23.15;3.35;;;;;;;4.27;100.00;99128.13;5077558;28;20039;-72
2023/11/10 04:02:56;;;;;;;13.48;2.45;;;;;;;4.23;100.00;99131.47;5077156;28;20119;-72
2023/11/10 04:05:43;;;;;;;19.45;2.70;;;;;;;4.21;100.00;99114.44;5088301;28;20099;-72
2023/11/10 04:08:27;;;;;;;11.25;2.20;;;;;;;4.19;100.00;99122.13;5084326;28;20385;-72
2023/11/10 04:11:12;;;;;;;14.52;2.20;;;;;;;4.20;100.00;99120.19;5077138;28;20163;-72
2023/11/10 04:13:56;;;;;;;13.10;2.60;;;;;;;4.19;100.00;99115.81;5077201;28;20051;-72
2023/11/10 04:16:41;;;;;;;11.73;2.63;;;;;;;4.15;100.00;99121.06;5091878;28;20114;-72
2023/11/10 04:19:24;;;;;;;12.75;2.10;;;;;;;4.18;100.00;99125.16;5078143;28;20043;-72
2023/11/10 04:22:09;;;;;;;14.98;2.40;;;;;;;4.21;100.00;99122.69;5094014;28;20034;-72
2023/11/10 04:24:54;;;;;;;17.15;2.10;;;;;;;4.15;100.00;99120.22;5082078;28;20103;-72
2023/11/10 04:27:41;;;;;;;15.23;2.17;;;;;;;4.13;100.00;99120.53;5077299;28;20060;-72
2023/11/10 04:30:28;;;;;;;15.57;2.55;;;;;;;4.15;100.00;99115.59;5086128;28;20169;-72
2023/11/10 04:33:12;;;;;;;16.10;2.17;;;;;;;4.13;100.00;99116.97;5079155;28;20094;-72
2023/11/10 04:35:56;;;;;;;16.33;1.90;;;;;;;4.14;100.00;99113.91;5078132;28;20449;-72
2023/11/10 04:38:47;;;;;;;12.35;2.20;;;;;;;4.14;100.00;99118.59;5097961;28;20450;-72
2023/11/10 04:41:33;;;;;;;16.15;2.50;;;;;;;4.11;100.00;99125.47;5079262;28;20043;-72
2023/11/10 04:44:17;;;;;;;16.38;2.55;;;;;;;4.13;100.00;99116.97;5072749;28;20047;-72
2023/11/10 04:47:01;;;;;;;16.50;3.08;;;;;;;4.16;100.00;99116.41;5086488;28;20086;-72
2023/11/10 04:49:45;;;;;;;13.13;2.25;;;;;;;4.13;100.00;99123.28;5090199;28;20035;-72
2023/11/10 04:52:29;;;;;;;17.35;2.53;;;;;;;4.15;100.00;99120.22;5090043;28;20043;-72
2023/11/10 04:55:14;;;;;;;13.55;3.00;;;;;;;4.09;100.00;99105.72;5077753;28;20116;-72
2023/11/10 04:57:59;;;;;;;10.43;2.05;;;;;;;4.08;100.00;99098.59;5096680;28;20039;-72
2023/11/10 05:00:42;;;;;;;19.05;2.50;;;;;;;4.04;100.00;99092.03;5080505;28;20091;-72
2023/11/10 05:03:26;;;;;;;12.20;1.98;;;;;;;4.03;100.00;99088.44;5077632;28;20039;-72
2023/11/10 05:06:11;;;;;;;18.85;2.40;;;;;;;4.07;100.00;99090.59;5096623;28;20499;-72
2023/11/10 05:08:54;;;;;;;18.45;2.45;;;;;;;4.03;100.00;99082.13;5078324;28;20121;-72
2023/11/10 05:11:39;;;;;;;16.75;2.50;;;;;;;4.06;100.00;99089.78;5076764;28;20035;-72
2023/11/10 05:14:23;;;;;;;19.75;2.72;;;;;;;4.02;100.00;99083.25;5077408;28;20051;-72
2023/11/10 05:17:07;;;;;;;20.00;2.58;;;;;;;3.99;100.00;99086.56;5076823;28;20047;-72
2023/11/10 05:19:52;;;;;;;13.27;2.30;;;;;;;4.00;100.00;99086.25;5076997;28;20062;-72
2023/11/10 05:22:37;;;;;;;21.05;2.65;;;;;;;3.99;100.00;99092.06;5097067;28;20042;-72
2023/11/10 05:25:21;;;;;;;17.33;2.63;;;;;;;3.99;100.00;99097.56;5062051;28;20043;-72
2023/11/10 05:28:05;;;;;;;16.75;2.40;;;;;;;4.01;100.00;99090.69;5090820;28;20035;-72
2023/11/10 05:30:49;;;;;;;13.65;2.40;;;;;;;3.98;100.00;99094.00;5076979;28;20032;-72
2023/11/10 05:33:34;;;;;;;15.45;2.28;;;;;;;3.97;100.00;99089.59;5076119;28;20440;-72
2023/11/10 05:36:18;;;;;;;17.67;2.63;;;;;;;3.95;100.00;99085.47;5077000;28;20073;-72
2023/11/10 05:39:02;;;;;;;12.95;2.25;;;;;;;3.96;100.00;99089.88;5083996;28;20047;-72
2023/11/10 05:41:46;;;;;;;11.95;2.28;;;;;;;3.91;100.00;99084.44;5077005;28;20427;-72
2023/11/10 05:44:30;;;;;;;19.15;2.15;;;;;;;3.91;100.00;99092.66;5090590;28;20074;-72
2023/11/10 05:47:14;;;;;;;18.05;2.50;;;;;;;3.91;100.00;99089.91;5077055;28;20102;-72
2023/11/10 05:49:58;;;;;;;14.50;2.40;;;;;;;3.87;100.00;99099.81;5076187;28;20050;-72
2023/11/10 05:52:42;;;;;;;16.23;2.30;;;;;;;3.80;100.00;99084.47;5089366;28;20055;-72
2023/11/10 05:55:26;;;;;;;14.45;2.47;;;;;;;3.81;100.00;99082.53;5077057;28;20381;-72
2023/11/10 05:58:10;;;;;;;12.27;2.10;;;;;;;3.81;100.00;99082.53;5084881;28;20043;-72
2023/11/10 06:00:54;;;;;;;15.45;2.40;;;;;;;3.81;100.00;99077.88;5078998;28;20162;-72
2023/11/10 06:03:39;;;;;;;13.77;2.13;;;;;;;3.76;100.00;99083.41;5076763;28;20538;-72
2023/11/10 06:06:24;;;;;;;11.20;1.85;;;;;;;3.72;100.00;99084.25;5092369;28;20082;-72
2023/11/10 06:09:08;;;;;;;14.35;1.98;;;;;;;3.74;100.00;99082.06;5077018;28;20043;-72
2023/11/10 06:11:53;;;;;;;12.82;2.85;;;;;;;3.69;100.00;99091.13;5076296;28;20040;-72
2023/11/10 06:14:38;;;;;;;15.25;2.60;;;;;;;3.69;100.00;99093.88;5078614;28;20086;-72
2023/11/10 06:17:22;;;;;;;18.38;2.22;;;;;;;3.73;100.00;99092.22;5088732;28;20044;-72
2023/11/10 06:20:07;;;;;;;20.65;2.40;;;;;;;3.72;100.00;99096.06;5061456;28;20044;-72
2023/11/10 06:22:52;;;;;;;14.77;2.08;;;;;;;3.75;100.00;99098.22;5088842;28;20078;-72
2023/11/10 06:25:36;;;;;;;12.52;2.45;;;;;;;3.69;100.00;99099.38;5084042;28;20393;-72
2023/11/10 06:28:20;;;;;;;17.40;2.13;;;;;;;3.69;100.00;99101.31;5079534;28;20043;-72
2023/11/10 06:31:04;;;;;;;14.80;1.80;;;;;;;3.73;100.00;99102.38;5079956;28;20039;-72
2023/11/10 06:33:49;;;;;;;19.25;2.05;;;;;;;3.73;100.00;99102.38;5080334;28;20039;-73
2023/11/10 06:36:33;;;;;;;12.27;2.17;;;;;;;3.74;100.00;99099.34;5065073;28;20042;-72
2023/11/10 06:39:17;;;;;;;12.23;1.95;;;;;;;3.72;100.00;99101.56;5080158;28;20090;-72
2023/11/10 06:42:02;;;;;;;11.75;2.10;;;;;;;3.77;100.00;99100.72;5080311;28;20035;-72
2023/11/10 06:44:47;;;;;;;12.15;2.13;;;;;;;3.79;100.00;99096.59;5093622;28;20044;-72
2023/11/10 06:47:32;;;;;;;16.95;1.88;;;;;;;3.82;100.00;99108.94;5078902;28;20047;-72
2023/11/10 06:50:16;;;;;;;17.15;1.92;;;;;;;3.85;100.00;99115.78;5078786;28;20071;-72
2023/11/10 06:53:00;;;;;;;12.90;1.70;;;;;;;3.85;100.00;99100.13;5086778;28;20062;-72
2023/11/10 06:55:44;;;;;;;11.90;2.35;;;;;;;3.88;100.00;99106.97;5083335;28;20043;-72
2023/11/10 06:58:28;;;;;;;12.88;2.20;;;;;;;3.95;100.00;99101.97;5079980;28;20043;-72
2023/11/10 07:01:12;;;;;;;12.32;2.08;;;;;;;3.97;100.00;99097.00;5079737;28;20043;-72
2023/11/10 07:03:56;;;;;;;17.92;2.13;;;;;;;3.95;100.00;99105.53;5079577;28;20093;-72
2023/11/10 07:06:40;;;;;;;15.52;2.05;;;;;;;3.98;100.00;99107.72;5098294;28;20039;-72
2023/11/10 07:09:25;;;;;;;12.63;2.42;;;;;;;3.99;100.00;99111.28;5088817;28;20059;-72
2023/11/10 07:12:10;;;;;;;19.05;2.78;;;;;;;4.01;100.00;99106.31;5080682;28;20416;-72
2023/11/10 07:14:55;;;;;;;14.18;2.25;;;;;;;4.03;100.00;99101.34;5079228;28;20101;-72
2023/11/10 07:17:41;;;;;;;12.85;2.50;;;;;;;4.08;100.00;99097.75;5079505;28;20098;-72
2023/11/10 07:20:26;;;;;;;12.80;2.42;;;;;;;4.08;100.00;99101.34;5081306;28;20035;-72
2023/11/10 07:23:10;;;;;;;15.68;2.35;;;;;;;4.11;100.00;99098.00;5096828;28;20396;-72
2023/11/10 07:25:54;;;;;;;10.75;1.85;;;;;;;4.14;100.00;99105.69;5077896;28;20078;-72
2023/11/10 07:28:38;;;;;;;15.13;2.20;;;;;;;4.18;100.00;99100.41;5087391;28;20046;-72
2023/11/10 07:31:22;;;;;;;15.52;2.28;;;;;;;4.21;100.00;99097.94;5081874;28;20067;-72
2023/11/10 07:34:07;;;;;;;15.32;2.22;;;;;;;4.28;100.00;99107.78;5079186;28;20438;-72
2023/11/10 07:36:53;;;;;;;16.42;2.17;;;;;;;4.32;100.00;99114.34;5088349;28;20031;-72
2023/11/10 07:39:37;;;;;;;13.77;2.03;;;;;;;4.36;100.00;99118.97;5079230;28;20087;-72
2023/11/10 07:42:21;;;;;;;10.52;1.90;;;;;;;4.42;100.00;99117.81;5078237;28;20043;-72
2023/11/10 07:45:06;;;;;;;16.92;2.40;;;;;;;4.45;100.00;99111.75;5078995;28;20043;-72
2023/11/10 07:47:50;;;;;;;10.65;1.60;;;;;;;4.51;100.00;99118.03;5079010;28;20040;-72
2023/11/10 07:50:34;;;;;;;8.70;1.92;;;;;;;4.54;100.00;99116.63;5078804;28;20546;-73
2023/11/10 07:53:18;;;;;;;9.32;2.30;;;;;;;4.54;100.00;99111.13;5063427;28;20031;-72
2023/11/10 07:56:03;;;;;;;10.45;2.05;;;;;;;4.56;100.00;99115.22;5078930;28;20035;-72
2023/11/10 07:58:47;;;;;;;12.35;2.22;;;;;;;4.57;100.00;99116.91;5077767;28;20055;-73
2023/11/10 08:01:31;;;;;;;10.15;2.17;;;;;;;4.59;100.00;99113.84;5078446;28;20097;-72
2023/11/10 08:04:15;;;;;;;13.68;1.77;;;;;;;4.64;100.00;99111.88;5084518;28;20105;-72
2023/11/10 08:06:59;;;;;;;11.20;2.60;;;;;;;4.67;100.00;99114.03;5090559;28;20039;-72
2023/11/10 08:09:43;;;;;;;6.82;1.50;;;;;;;4.73;100.00;99114.00;5078614;28;20043;-72
2023/11/10 08:12:29;;;;;;;12.77;1.83;;;;;;;4.82;100.00;99115.00;5085374;28;20152;-72
2023/11/10 08:15:13;;;;;;;9.30;2.20;;;;;;;4.90;100.00;99109.72;5080723;28;20165;-72
2023/11/10 08:17:57;;;;;;;12.27;1.98;;;;;;;5.01;100.00;99099.38;5091179;28;20414;-73
2023/11/10 08:20:42;;;;;;;10.05;2.20;;;;;;;5.11;100.00;99096.53;5086622;28;20121;-72
2023/11/10 08:23:27;;;;;;;13.43;2.10;;;;;;;5.23;100.00;99101.63;5093553;28;20067;-72
2023/11/10 08:26:12;;;;;;;12.57;2.17;;;;;;;5.32;100.00;99099.88;5076672;28;20086;-72
2023/11/10 08:28:56;;;;;;;13.48;2.10;;;;;;;5.44;100.00;99104.97;5067395;28;20528;-73
2023/11/10 08:31:41;;;;;;;13.05;2.08;;;;;;;5.57;100.00;99100.66;5090004;28;20063;-73
2023/11/10 08:34:25;;;;;;;13.40;2.83;;;;;;;5.70;100.00;99105.44;5094569;28;20561;-72
2023/11/10 08:37:09;;;;;;;21.10;2.70;;;;;;;5.83;100.00;99103.91;5097869;28;20108;-72
2023/11/10 08:39:53;;;;;;;13.02;2.35;;;;;;;5.96;100.00;99105.13;5084734;28;20109;-72
2023/11/10 08:42:41;;;;;;;19.38;2.90;;;;;;;6.07;100.00;99097.53;5084438;28;20040;-72
2023/11/10 08:45:25;;;;;;;15.50;3.10;;;;;;;6.19;100.00;99090.44;5087525;28;20055;-72
2023/11/10 08:48:09;;;;;;;16.00;2.80;;;;;;;6.32;100.00;99085.28;5077339;28;20043;-72
2023/11/10 08:50:54;;;;;;;11.38;2.42;;;;;;;6.45;100.00;99079.81;5079741;28;20120;-73
2023/11/10 08:53:38;;;;;;;20.40;2.88;;;;;;;6.60;100.00;99077.91;5085485;28;20109;-72
2023/11/10 08:56:22;;;;;;;20.35;3.33;;;;;;;6.73;100.00;99074.38;5084867;28;20081;-72
2023/11/10 08:59:08;;;;;;;23.38;3.38;;;;;;;6.90;100.00;99071.84;5080811;28;20452;-73
2023/11/10 09:01:52;;;;;;;21.13;3.13;;;;;;;7.07;100.00;99070.41;5077500;28;20040;-73
2023/11/10 09:04:36;;;;;;;22.88;3.20;;;;;;;7.19;100.00;99067.97;5077899;28;20066;-73
2023/11/10 09:07:20;;;;;;;16.42;2.83;;;;;;;7.35;100.00;99046.38;5097379;28;20791;-72
2023/11/10 09:10:04;;;;;;;19.63;2.72;;;;;;;7.43;100.00;99058.66;5082199;28;20066;-73
2023/11/10 09:12:49;;;;;;;20.02;3.13;;;;;;;7.54;100.00;99071.94;5076910;28;20105;-73
2023/11/10 09:15:33;;;;;;;19.70;2.83;;;;;;;7.63;100.00;99055.44;5077311;28;20047;-72
2023/11/10 09:18:17;;;;;;;23.38;3.33;;;;;;;7.72;100.00;99059.13;5077276;28;20043;-73
2023/11/10 09:21:01;;;;;;;19.85;2.78;;;;;;;7.81;100.00;99065.53;5084174;28;20093;-73
2023/11/10 09:23:46;;;;;;;19.25;3.05;;;;;;;7.93;100.00;99066.94;5084300;28;20043;-73
2023/11/10 09:26:30;;;;;;;19.38;3.15;;;;;;;8.02;100.00;99049.31;5080214;28;20041;-73
2023/11/10 09:29:15;;;;;;;23.40;2.72;;;;;;;8.17;100.00;99053.66;5076930;28;20090;-73
2023/11/10 09:31:59;;;;;;;18.83;2.83;;;;;;;8.32;100.00;99055.22;5050744;28;20035;-73
2023/11/10 09:34:43;;;;;;;21.35;3.25;;;;;;;8.47;100.00;99074.25;5090318;28;20083;-72
2023/11/10 09:37:27;;;;;;;27.63;3.47;;;;;;;8.60;100.00;99072.53;5076888;28;20044;-73
2023/11/10 09:40:11;;;;;;;22.02;3.05;;;;;;;8.71;100.00;99062.81;5077168;28;20059;-73
2023/11/10 09:42:56;;;;;;;24.10;3.60;;;;;;;8.86;100.00;99069.09;5078571;28;20173;-73
2023/11/10 09:45:51;;;;;;;21.40;3.63;;;;;;;8.98;100.00;99054.66;5083658;28;20102;-73
2023/11/10 09:48:35;;;;;;;21.35;3.33;;;;;;;9.10;100.00;99064.00;5063241;28;20067;-73
2023/11/10 09:51:19;;;;;;;23.73;3.20;;;;;;;9.26;100.00;99064.38;5075872;28;20120;-73
2023/11/10 09:54:04;;;;;;;28.40;3.20;;;;;;;9.39;100.00;99071.78;5073019;28;20090;-73
2023/11/10 09:56:48;;;;;;;19.65;3.30;;;;;;;9.50;100.00;99068.69;5070377;28;20047;-73
2023/11/10 09:59:32;;;;;;;22.60;3.70;;;;;;;9.64;100.00;99055.53;5076003;28;20039;-73
2023/11/10 10:02:17;;;;;;;24.33;4.15;;;;;;;9.75;100.00;99048.53;5079170;28;20063;-73
2023/11/10 10:05:02;;;;;;;26.13;3.58;;;;;;;9.88;100.00;99041.19;5091287;28;20039;-73
2023/11/10 10:07:46;;;;;;;15.48;2.65;;;;;;;9.99;100.00;99039.75;5089415;28;20119;-73
2023/11/10 10:10:30;;;;;;;22.02;3.08;;;;;;;10.09;100.00;99027.50;5082800;28;20622;-73
2023/11/10 10:13:14;;;;;;;15.75;2.58;;;;;;;10.19;100.00;99029.94;5064765;28;20051;-73
2023/11/10 10:16:09;;;;;;;22.00;2.83;;;;;;;10.26;100.00;99037.78;5080072;28;20039;-73
2023/11/10 10:18:54;;;;;;;18.63;3.13;;;;;;;10.33;100.00;99034.53;5087735;28;20097;-73
2023/11/10 10:21:42;;;;;;;21.30;2.60;;;;;;;10.42;100.00;99027.84;5094922;28;20039;-73
2023/11/10 10:24:26;;;;;;;22.15;3.00;;;;;;;10.48;100.00;99022.94;5087007;28;20071;-72
2023/11/10 10:27:12;;;;;;;25.92;3.17;;;;;;;10.51;100.00;99044.47;5088175;28;20066;-73
2023/11/10 10:29:59;;;;;;;21.80;3.60;;;;;;;10.58;100.00;99032.84;5082118;28;20086;-73
2023/11/10 10:32:43;;;;;;;18.23;2.47;;;;;;;10.61;100.00;99046.88;5080309;28;20464;-73
2023/11/10 10:35:27;;;;;;;19.42;3.13;;;;;;;10.64;100.00;99045.41;5080188;28;20090;-73
2023/11/10 10:38:14;;;;;;;18.77;2.70;;;;;;;10.67;100.00;99026.16;5079920;28;20036;-73
2023/11/10 10:40:59;;;;;;;23.20;3.85;;;;;;;10.73;100.00;99043.44;5095917;28;20626;-73
2023/11/10 10:43:43;;;;;;;21.95;3.25;;;;;;;10.81;100.00;99014.00;5089913;28;20506;-73
2023/11/10 10:46:27;;;;;;;23.55;3.28;;;;;;;10.84;100.00;99005.84;5081071;28;20086;-73
2023/11/10 10:49:12;;;;;;;26.80;3.10;;;;;;;10.90;100.00;98993.41;5078814;28;20543;-73
2023/11/10 10:51:56;;;;;;;19.65;3.53;;;;;;;10.92;100.00;99005.00;5089828;28;20043;-73
2023/11/10 10:54:40;;;;;;;23.98;4.10;;;;;;;10.96;100.00;99016.25;5099159;28;20088;-73
2023/11/10 10:57:25;;;;;;;26.27;3.13;;;;;;;11.00;100.00;98996.94;5083632;28;20536;-73
2023/11/10 11:00:09;;;;;;;21.08;3.03;;;;;;;11.02;100.00;98994.66;5064785;28;20048;-73
2023/11/10 11:03:13;;;;;;;26.23;4.15;;;;;;;11.00;100.00;99014.41;5088285;28;20380;-73
2023/11/10 11:06:02;;;;;;;19.45;2.85;;;;;;;11.06;100.00;99013.09;5091466;28;20039;-73
2023/11/10 11:09:19;;;;;;;26.75;3.50;;;;;;;11.09;100.00;98997.75;5099774;28;20042;-73
2023/11/10 11:12:09;;;;;;;34.00;4.20;;;;;;;11.14;100.00;98997.53;5080881;28;20089;-73
2023/11/10 11:15:08;;;;;;;23.70;3.38;;;;;;;11.18;100.00;98996.53;5079070;28;20047;-73
2023/11/10 11:17:58;;;;;;;24.40;4.53;;;;;;;11.21;100.00;98988.69;5078531;28;20466;-73
2023/11/10 11:20:42;;;;;;;30.92;4.38;;;;;;;11.21;100.00;98991.47;5087960;28;20043;-73
2023/11/10 11:23:28;;;;;;;20.98;3.38;;;;;;;11.19;100.00;98969.56;5094114;28;20094;-73
2023/11/10 11:26:14;;;;;;;22.40;3.65;;;;;;;11.21;100.00;98988.69;5078952;28;20446;-73
2023/11/10 11:29:07;;;;;;;24.50;3.58;;;;;;;11.21;100.00;98988.69;5079406;28;20071;-73
2023/11/10 11:31:51;;;;;;;21.83;3.60;;;;;;;11.22;100.00;98995.84;5086072;28;20047;-73
2023/11/10 11:34:35;;;;;;;21.20;3.25;;;;;;;11.24;100.00;98988.81;5081148;28;20507;-73
2023/11/10 11:37:19;;;;;;;23.60;4.05;;;;;;;11.26;100.00;98996.84;5085453;28;20435;-73
2023/11/10 11:40:07;;;;;;;24.88;3.70;;;;;;;11.25;100.00;98998.78;5087702;28;20443;-73
2023/11/10 11:42:52;;;;;;;23.80;3.65;;;;;;;11.29;100.00;98999.75;5082465;28;20035;-73
2023/11/10 11:45:39;;;;;;;22.23;3.92;;;;;;;11.28;100.00;99006.47;5086811;28;20036;-73
2023/11/10 11:48:24;;;;;;;25.30;3.95;;;;;;;11.28;100.00;99020.34;5077853;28;20174;-73
2023/11/10 11:51:08;;;;;;;19.42;4.05;;;;;;;11.25;100.00;99021.00;5083293;28;20089;-73
2023/11/10 11:53:52;;;;;;;22.55;3.50;;;;;;;11.21;100.00;99033.94;5084150;28;20071;-73
2023/11/10 11:56:36;;;;;;;20.42;3.45;;;;;;;11.25;100.00;99040.47;5078703;28;20043;-73
2023/11/10 11:59:20;;;;;;;16.33;2.63;;;;;;;11.19;100.00;99028.72;5077433;28;20051;-73
2023/11/10 12:02:04;;;;;;;17.90;3.38;;;;;;;11.13;100.00;99030.06;5078696;28;20389;-73
2023/11/10 12:04:48;;;;;;;18.13;3.60;;;;;;;11.10;100.00;99030.72;5081596;28;20035;-73
2023/11/10 12:07:33;;;;;;;20.98;3.08;;;;;;;11.05;100.00;99041.22;5092159;28;20052;-73
2023/11/10 12:10:17;;;;;;;19.40;3.67;;;;;;;11.04;100.00;99056.25;5078162;28;20051;-73
2023/11/10 12:13:01;;;;;;;28.45;5.30;;;;;;;10.99;100.00;99051.69;5078317;28;20566;-73
2023/11/10 12:15:46;;;;;;;21.02;4.65;;;;;;;10.94;100.00;99055.44;5086167;28;20047;-73
2023/11/10 12:18:35;;;;;;;24.00;3.72;;;;;;;10.88;100.00;99062.34;5087255;28;20098;-73
2023/11/10 12:21:19;;;;;;;21.92;3.95;;;;;;;10.82;100.00;99055.34;5086176;28;20039;-73
2023/11/10 12:24:04;;;;;;;28.08;3.72;;;;;;;10.77;100.00;99063.03;5088859;28;20109;-73
2023/11/10 12:26:49;;;;;;;21.98;5.20;;;;;;;10.70;100.00;99058.81;5077905;28;20043;-73
2023/11/10 12:29:32;;;;;;;20.02;4.38;;;;;;;10.70;100.00;99055.22;5062790;28;20079;-73
2023/11/10 12:32:16;;;;;;;19.05;3.60;;;;;;;10.65;100.00;99056.19;5078010;28;20039;-73
2023/11/10 12:35:03;;;;;;;28.67;4.32;;;;;;;10.65;100.00;99049.84;5077016;28;20046;-73
2023/11/10 12:37:47;;;;;;;16.23;3.25;;;;;;;10.61;100.00;99068.28;5077723;28;20515;-73
2023/11/10 12:40:32;;;;;;;20.20;3.53;;;;;;;10.66;100.00;99059.78;5076695;28;20040;-73
2023/11/10 12:43:15;;;;;;;17.17;3.35;;;;;;;10.65;100.00;99067.31;5083949;28;20039;-73
2023/11/10 12:46:11;;;;;;;18.52;3.22;;;;;;;10.65;100.00;99070.09;5082560;28;20503;-73